createdAt,value
2018-01-14T00:00:49.321Z,46.79
2018-01-14T00:01:49.298Z,46.62
2018-01-14T00:02:49.274Z,46.59
2018-01-14T00:03:49.254Z,46.69
2018-01-14T00:04:49.230Z,46.69
2018-01-14T00:05:49.208Z,46.81
2018-01-14T00:06:49.186Z,46.41
2018-01-14T00:07:49.163Z,46.79
2018-01-14T00:08:49.141Z,46.02
2018-01-14T00:09:49.117Z,46.59
2018-01-14T00:10:49.095Z,46.59
2018-01-14T00:11:49.073Z,46.31
2018-01-14T00:12:49.051Z,46.69
2018-01-14T00:13:49.026Z,46.59
2018-01-14T00:14:49.005Z,46.31
2018-01-14T00:15:48.983Z,46.43
2018-01-14T00:16:48.961Z,46.59
2018-01-14T00:17:48.938Z,46.50
2018-01-14T00:18:48.915Z,46.59
2018-01-14T00:19:48.892Z,46.59
2018-01-14T00:20:48.871Z,46.69
2018-01-14T00:21:48.847Z,46.59
2018-01-14T00:22:48.830Z,46.21
2018-01-14T00:23:48.803Z,46.59
2018-01-14T00:24:48.780Z,46.59
2018-01-14T00:25:48.757Z,46.31
2018-01-14T00:26:48.735Z,46.21
2018-01-14T00:27:48.713Z,46.14
2018-01-14T00:28:48.691Z,46.31
2018-01-14T00:29:48.668Z,46.50
2018-01-14T00:30:48.646Z,46.59
2018-01-14T00:31:48.623Z,46.21
2018-01-14T00:32:48.600Z,46.43
2018-01-14T00:33:48.577Z,46.69
2018-01-14T00:34:48.556Z,46.59
2018-01-14T00:35:48.533Z,46.50
2018-01-14T00:36:48.511Z,46.50
2018-01-14T00:37:48.488Z,46.50
2018-01-14T00:38:48.466Z,46.31
2018-01-14T00:39:48.448Z,46.31
2018-01-14T00:40:48.468Z,46.31
2018-01-14T00:41:48.397Z,46.21
2018-01-14T00:42:48.427Z,46.21
2018-01-14T00:43:48.354Z,46.31
2018-01-14T00:44:48.333Z,46.41
2018-01-14T00:45:48.309Z,46.31
2018-01-14T00:46:48.286Z,46.02
2018-01-14T00:47:48.268Z,46.12
2018-01-14T00:48:48.242Z,46.21
2018-01-14T00:49:48.220Z,46.12
2018-01-14T00:50:48.198Z,46.12
2018-01-14T00:51:48.175Z,46.12
2018-01-14T00:52:48.154Z,46.12
2018-01-14T00:53:48.131Z,46.21
2018-01-14T00:54:48.108Z,46.41
2018-01-14T00:55:48.086Z,46.31
2018-01-14T00:56:48.063Z,46.50
2018-01-14T00:57:48.041Z,46.31
2018-01-14T00:58:48.024Z,46.21
2018-01-14T00:59:47.997Z,46.21
2018-01-14T01:00:47.975Z,46.31
2018-01-14T01:01:47.951Z,46.12
2018-01-14T01:02:47.928Z,46.31
2018-01-14T01:03:47.907Z,46.31
2018-01-14T01:04:47.885Z,46.12
2018-01-14T01:05:47.862Z,46.12
2018-01-14T01:06:47.840Z,46.31
2018-01-14T01:07:47.818Z,46.21
2018-01-14T01:08:47.796Z,46.59
2018-01-14T01:09:47.772Z,46.21
2018-01-14T01:10:47.750Z,46.21
2018-01-14T01:11:47.728Z,46.31
2018-01-14T01:12:47.706Z,46.12
2018-01-14T01:13:47.683Z,46.12
2018-01-14T01:14:47.661Z,46.12
2018-01-14T01:15:47.639Z,46.12
2018-01-14T01:16:47.617Z,46.02
2018-01-14T01:17:47.594Z,46.02
2018-01-14T01:18:47.572Z,46.12
2018-01-14T01:19:47.549Z,46.12
2018-01-14T01:20:47.528Z,45.92
2018-01-14T01:21:47.506Z,46.02
2018-01-14T01:22:47.483Z,46.21
2018-01-14T01:23:47.461Z,46.12
2018-01-14T01:24:47.438Z,45.92
2018-01-14T01:25:47.415Z,45.92
2018-01-14T01:26:47.394Z,46.41
2018-01-14T01:27:47.370Z,46.12
2018-01-14T01:28:47.350Z,46.21
2018-01-14T01:29:47.330Z,46.02
2018-01-14T01:30:47.304Z,46.12
2018-01-14T01:31:47.282Z,45.92
2018-01-14T01:32:47.259Z,46.12
2018-01-14T01:33:47.237Z,46.21
2018-01-14T01:34:47.215Z,45.92
2018-01-14T01:35:47.193Z,46.02
2018-01-14T01:36:47.170Z,45.92
2018-01-14T01:37:47.148Z,46.21
2018-01-14T01:38:47.126Z,46.21
2018-01-14T01:39:47.103Z,46.12
2018-01-14T01:40:47.081Z,46.12
2018-01-14T01:41:47.058Z,46.12
2018-01-14T01:42:47.036Z,46.12
2018-01-14T01:43:47.014Z,46.21
2018-01-14T01:44:46.991Z,46.12
2018-01-14T01:45:46.969Z,46.12
2018-01-14T01:46:46.946Z,46.31
2018-01-14T01:47:46.924Z,46.41
2018-01-14T01:48:46.902Z,46.12
2018-01-14T01:49:46.879Z,46.21
2018-01-14T01:50:46.857Z,46.21
2018-01-14T01:51:46.835Z,46.12
2018-01-14T01:52:46.813Z,46.21
2018-01-14T01:53:46.797Z,45.92
2018-01-14T01:54:46.766Z,46.21
2018-01-14T01:55:46.748Z,46.12
2018-01-14T01:56:46.723Z,46.21
2018-01-14T01:57:46.700Z,46.21
2018-01-14T01:58:46.678Z,46.21
2018-01-14T01:59:46.656Z,46.21
2018-01-14T02:00:46.634Z,46.12
2018-01-14T02:01:46.610Z,46.12
2018-01-14T02:02:46.587Z,45.92
2018-01-14T02:03:46.565Z,46.02
2018-01-14T02:04:46.549Z,46.12
2018-01-14T02:05:46.521Z,46.21
2018-01-14T02:06:46.499Z,46.02
2018-01-14T02:07:46.477Z,46.02
2018-01-14T02:08:46.454Z,45.73
2018-01-14T02:09:46.432Z,45.64
2018-01-14T02:10:46.410Z,46.02
2018-01-14T02:11:46.387Z,46.12
2018-01-14T02:12:46.365Z,46.12
2018-01-14T02:13:46.343Z,46.02
2018-01-14T02:14:46.321Z,46.21
2018-01-14T02:15:46.298Z,46.02
2018-01-14T02:16:46.277Z,46.12
2018-01-14T02:17:46.252Z,46.12
2018-01-14T02:18:46.231Z,46.12
2018-01-14T02:19:46.208Z,46.02
2018-01-14T02:20:46.187Z,46.12
2018-01-14T02:21:46.764Z,46.02
2018-01-14T02:22:46.141Z,46.12
2018-01-14T02:23:46.120Z,46.02
2018-01-14T02:24:46.097Z,46.12
2018-01-14T02:25:46.075Z,46.12
2018-01-14T02:26:46.052Z,46.09
2018-01-14T02:27:46.030Z,46.21
2018-01-14T02:28:46.008Z,45.73
2018-01-14T02:29:45.984Z,46.02
2018-01-14T02:30:45.966Z,45.45
2018-01-14T02:31:45.939Z,45.73
2018-01-14T02:32:45.918Z,46.12
2018-01-14T02:33:45.896Z,46.09
2018-01-14T02:34:45.873Z,45.64
2018-01-14T02:35:45.853Z,45.64
2018-01-14T02:36:45.829Z,46.00
2018-01-14T02:37:45.806Z,46.12
2018-01-14T02:38:45.784Z,46.19
2018-01-14T02:39:45.762Z,46.09
2018-01-14T02:40:45.739Z,46.12
2018-01-14T02:41:45.717Z,46.09
2018-01-14T02:42:45.693Z,46.09
2018-01-14T02:43:45.671Z,46.00
2018-01-14T02:44:45.649Z,46.00
2018-01-14T02:45:45.626Z,46.09
2018-01-14T02:46:45.605Z,45.45
2018-01-14T02:47:45.588Z,44.96
2018-01-14T02:48:45.560Z,45.52
2018-01-14T02:49:45.536Z,46.19
2018-01-14T02:50:45.514Z,46.09
2018-01-14T02:51:45.491Z,46.09
2018-01-14T02:52:45.470Z,46.19
2018-01-14T02:53:45.446Z,46.09
2018-01-14T02:54:45.424Z,46.19
2018-01-14T02:55:45.401Z,46.00
2018-01-14T02:56:45.379Z,46.19
2018-01-14T02:57:45.355Z,46.00
2018-01-14T02:58:45.334Z,46.09
2018-01-14T02:59:45.312Z,45.90
2018-01-14T03:00:45.289Z,45.52
2018-01-14T03:01:45.267Z,45.42
2018-01-14T03:02:45.244Z,46.09
2018-01-14T03:03:45.222Z,45.42
2018-01-14T03:04:45.199Z,45.42
2018-01-14T03:05:45.177Z,45.61
2018-01-14T03:06:45.155Z,46.00
2018-01-14T03:07:45.132Z,45.81
2018-01-14T03:08:45.110Z,46.00
2018-01-14T03:09:45.086Z,45.61
2018-01-14T03:10:45.065Z,46.19
2018-01-14T03:11:45.043Z,46.19
2018-01-14T03:12:45.021Z,46.19
2018-01-14T03:13:44.997Z,46.09
2018-01-14T03:14:44.976Z,45.81
2018-01-14T03:15:44.954Z,45.81
2018-01-14T03:16:44.931Z,45.52
2018-01-14T03:17:44.908Z,45.52
2018-01-14T03:18:44.886Z,46.00
2018-01-14T03:19:44.864Z,45.52
2018-01-14T03:20:44.840Z,45.61
2018-01-14T03:21:44.819Z,45.52
2018-01-14T03:22:46.898Z,45.32
2018-01-14T03:23:44.774Z,45.42
2018-01-14T03:24:44.752Z,45.42
2018-01-14T03:25:44.729Z,45.81
2018-01-14T03:26:44.707Z,45.61
2018-01-14T03:27:44.684Z,46.09
2018-01-14T03:28:44.662Z,45.61
2018-01-14T03:29:44.639Z,45.52
2018-01-14T03:30:44.616Z,45.52
2018-01-14T03:31:44.594Z,45.71
2018-01-14T03:32:44.572Z,45.52
2018-01-14T03:33:44.549Z,45.52
2018-01-14T03:34:44.527Z,45.61
2018-01-14T03:35:44.504Z,45.42
2018-01-14T03:36:44.482Z,46.09
2018-01-14T03:38:44.436Z,46.84
2018-01-14T03:39:44.414Z,47.22
2018-01-14T03:40:44.392Z,47.41
2018-01-14T03:41:44.368Z,47.44
2018-01-14T03:42:44.346Z,46.94
2018-01-14T03:43:44.323Z,47.63
2018-01-14T03:44:44.300Z,47.63
2018-01-14T03:45:44.277Z,47.34
2018-01-14T03:46:44.255Z,47.05
2018-01-14T03:47:44.233Z,47.05
2018-01-14T03:48:44.209Z,46.28
2018-01-14T03:49:44.186Z,46.38
2018-01-14T03:50:44.164Z,46.21
2018-01-14T03:51:44.141Z,46.31
2018-01-14T03:52:44.119Z,46.50
2018-01-14T03:53:44.096Z,46.28
2018-01-14T03:54:44.072Z,46.69
2018-01-14T03:55:44.051Z,46.50
2018-01-14T03:56:44.029Z,46.31
2018-01-14T03:57:44.005Z,46.12
2018-01-14T03:58:43.982Z,45.92
2018-01-14T03:59:43.959Z,46.12
2018-01-14T04:00:43.939Z,46.02
2018-01-14T04:01:43.916Z,46.14
2018-01-14T04:02:43.893Z,46.12
2018-01-14T04:03:43.871Z,46.14
2018-01-14T04:04:43.849Z,45.64
2018-01-14T04:05:43.826Z,46.14
2018-01-14T04:06:43.803Z,45.85
2018-01-14T04:07:43.782Z,45.47
2018-01-14T04:08:43.761Z,45.08
2018-01-14T04:09:43.741Z,45.18
2018-01-14T04:10:43.717Z,45.08
2018-01-14T04:11:43.697Z,45.28
2018-01-14T04:12:43.670Z,45.18
2018-01-14T04:13:43.647Z,45.18
2018-01-14T04:14:43.625Z,45.66
2018-01-14T04:15:43.604Z,45.18
2018-01-14T04:16:43.582Z,45.18
2018-01-14T04:17:43.558Z,45.56
2018-01-14T04:18:43.537Z,46.14
2018-01-14T04:19:43.515Z,45.56
2018-01-14T04:20:43.493Z,45.56
2018-01-14T04:21:43.470Z,46.04
2018-01-14T04:22:43.448Z,46.14
2018-01-14T04:23:43.425Z,45.95
2018-01-14T04:24:43.403Z,46.23
2018-01-14T04:25:43.381Z,45.95
2018-01-14T04:26:43.359Z,46.33
2018-01-14T04:27:43.336Z,46.53
2018-01-14T04:28:43.319Z,46.53
2018-01-14T04:29:43.292Z,46.81
2018-01-14T04:30:43.272Z,46.79
2018-01-14T04:31:43.246Z,46.31
2018-01-14T04:32:43.225Z,46.62
2018-01-14T04:33:43.201Z,46.59
2018-01-14T04:34:43.179Z,46.43
2018-01-14T04:35:43.161Z,46.98
2018-01-14T04:36:43.134Z,46.79
2018-01-14T04:37:43.111Z,46.79
2018-01-14T04:38:43.089Z,46.89
2018-01-14T04:39:43.066Z,47.36
2018-01-14T04:40:43.044Z,47.08
2018-01-14T04:41:43.020Z,46.91
2018-01-14T04:42:42.998Z,46.81
2018-01-14T04:43:42.975Z,46.62
2018-01-14T04:44:42.954Z,46.81
2018-01-14T04:45:42.929Z,46.59
2018-01-14T04:46:42.908Z,46.62
2018-01-14T04:47:42.885Z,46.33
2018-01-14T04:48:42.862Z,46.81
2018-01-14T04:49:42.838Z,47.10
2018-01-14T04:50:42.817Z,46.81
2018-01-14T04:51:42.799Z,46.72
2018-01-14T04:52:42.773Z,46.91
2018-01-14T04:53:42.749Z,46.91
2018-01-14T04:54:42.726Z,47.00
2018-01-14T04:55:42.705Z,46.81
2018-01-14T04:56:42.682Z,46.98
2018-01-14T04:57:42.658Z,47.00
2018-01-14T04:58:42.637Z,46.81
2018-01-14T04:59:42.615Z,46.91
2018-01-14T05:00:42.592Z,47.00
2018-01-14T05:01:42.570Z,47.20
2018-01-14T05:02:42.547Z,47.20
2018-01-14T05:03:42.524Z,47.27
2018-01-14T05:04:42.502Z,46.91
2018-01-14T05:05:42.479Z,47.27
2018-01-14T05:06:42.456Z,47.39
2018-01-14T05:07:42.434Z,47.46
2018-01-14T05:08:42.412Z,47.49
2018-01-14T05:09:42.389Z,47.49
2018-01-14T05:10:42.366Z,47.30
2018-01-14T05:11:42.343Z,47.20
2018-01-14T05:12:42.320Z,47.56
2018-01-14T05:13:42.296Z,47.85
2018-01-14T05:14:42.273Z,47.94
2018-01-14T05:15:42.251Z,47.20
2018-01-14T05:16:42.229Z,47.46
2018-01-14T05:17:42.206Z,47.30
2018-01-14T05:18:42.184Z,47.58
2018-01-14T05:19:42.161Z,47.30
2018-01-14T05:20:42.139Z,47.27
2018-01-14T05:21:42.115Z,47.36
2018-01-14T05:22:42.093Z,47.75
2018-01-14T05:23:42.070Z,47.87
2018-01-14T05:24:42.048Z,47.56
2018-01-14T05:25:42.024Z,47.49
2018-01-14T05:26:42.002Z,47.20
2018-01-14T05:27:41.979Z,47.30
2018-01-14T05:28:41.956Z,47.30
2018-01-14T05:29:41.933Z,47.77
2018-01-14T05:30:41.913Z,47.77
2018-01-14T05:31:41.892Z,47.39
2018-01-14T05:32:41.866Z,47.30
2018-01-14T05:33:41.843Z,47.66
2018-01-14T05:34:41.821Z,47.27
2018-01-14T05:35:41.797Z,47.00
2018-01-14T05:36:41.778Z,46.81
2018-01-14T05:37:41.751Z,47.00
2018-01-14T05:38:41.730Z,46.81
2018-01-14T05:39:41.708Z,46.81
2018-01-14T05:40:41.685Z,46.79
2018-01-14T05:41:41.662Z,46.50
2018-01-14T05:42:41.640Z,46.98
2018-01-14T05:43:41.617Z,47.08
2018-01-14T05:44:41.594Z,46.89
2018-01-14T05:45:41.570Z,47.17
2018-01-14T05:46:41.548Z,46.98
2018-01-14T05:47:41.526Z,46.41
2018-01-14T05:48:41.504Z,46.41
2018-01-14T05:49:41.481Z,46.31
2018-01-14T05:50:41.459Z,46.98
2018-01-14T05:51:41.436Z,46.89
2018-01-14T05:52:41.414Z,46.41
2018-01-14T05:53:41.391Z,46.79
2018-01-14T05:54:41.369Z,46.69
2018-01-14T05:55:41.345Z,46.89
2018-01-14T05:56:41.329Z,46.79
2018-01-14T05:57:41.301Z,46.69
2018-01-14T05:58:41.278Z,46.69
2018-01-14T05:59:41.260Z,46.79
2018-01-14T06:00:41.233Z,46.58
2018-01-14T06:01:41.209Z,46.86
2018-01-14T06:02:41.188Z,46.58
2018-01-14T06:03:41.165Z,46.59
2018-01-14T06:04:41.145Z,46.67
2018-01-14T06:05:41.118Z,46.38
2018-01-14T06:06:41.096Z,46.58
2018-01-14T06:07:41.074Z,46.58
2018-01-14T06:08:41.052Z,46.50
2018-01-14T06:09:41.028Z,46.38
2018-01-14T06:10:41.006Z,46.58
2018-01-14T06:11:40.983Z,46.67
2018-01-14T06:12:40.960Z,46.28
2018-01-14T06:13:40.943Z,46.28
2018-01-14T06:14:40.915Z,46.28
2018-01-14T06:15:40.892Z,45.90
2018-01-14T06:16:40.868Z,46.19
2018-01-14T06:17:40.845Z,46.41
2018-01-14T06:18:40.821Z,45.90
2018-01-14T06:19:40.800Z,45.92
2018-01-14T06:20:40.778Z,46.19
2018-01-14T06:21:40.754Z,46.00
2018-01-14T06:22:40.731Z,46.00
2018-01-14T06:23:40.709Z,46.09
2018-01-14T06:24:40.687Z,46.09
2018-01-14T06:25:40.662Z,46.19
2018-01-14T06:26:40.641Z,45.64
2018-01-14T06:27:40.618Z,45.42
2018-01-14T06:28:40.595Z,46.00
2018-01-14T06:29:40.572Z,46.09
2018-01-14T06:30:40.551Z,45.54
2018-01-14T06:31:40.528Z,45.45
2018-01-14T06:32:40.505Z,45.52
2018-01-14T06:33:40.482Z,45.54
2018-01-14T06:34:40.459Z,45.54
2018-01-14T06:35:40.436Z,45.15
2018-01-14T06:36:40.413Z,45.42
2018-01-14T06:37:40.391Z,45.52
2018-01-14T06:38:40.369Z,45.71
2018-01-14T06:39:40.348Z,45.52
2018-01-14T06:40:40.324Z,45.52
2018-01-14T06:41:40.301Z,45.52
2018-01-14T06:42:40.279Z,46.00
2018-01-14T06:43:40.257Z,46.00
2018-01-14T06:44:40.232Z,45.52
2018-01-14T06:45:40.209Z,45.71
2018-01-14T06:46:40.187Z,45.52
2018-01-14T06:47:40.166Z,45.81
2018-01-14T06:48:40.143Z,46.00
2018-01-14T06:49:40.120Z,46.09
2018-01-14T06:50:40.098Z,46.09
2018-01-14T06:51:40.074Z,46.09
2018-01-14T06:52:40.053Z,45.90
2018-01-14T06:53:40.028Z,46.38
2018-01-14T06:54:40.007Z,46.09
2018-01-14T06:55:39.983Z,45.61
2018-01-14T06:56:39.962Z,46.09
2018-01-14T06:57:39.938Z,46.09
2018-01-14T06:58:39.914Z,46.00
2018-01-14T06:59:39.893Z,45.25
2018-01-14T07:00:39.872Z,45.32
2018-01-14T07:01:39.847Z,45.61
2018-01-14T07:02:39.825Z,45.42
2018-01-14T07:03:39.802Z,45.52
2018-01-14T07:04:39.779Z,45.32
2018-01-14T07:05:39.755Z,45.23
2018-01-14T07:06:39.733Z,45.23
2018-01-14T07:07:39.710Z,44.84
2018-01-14T07:08:39.687Z,45.23
2018-01-14T07:09:39.665Z,45.61
2018-01-14T07:10:39.642Z,45.32
2018-01-14T07:11:39.619Z,45.32
2018-01-14T07:12:39.597Z,45.61
2018-01-14T07:13:39.573Z,45.81
2018-01-14T07:14:39.549Z,45.61
2018-01-14T07:15:39.526Z,45.42
2018-01-14T07:16:39.505Z,45.42
2018-01-14T07:17:39.482Z,45.23
2018-01-14T07:18:39.459Z,45.04
2018-01-14T07:19:39.437Z,45.23
2018-01-14T07:20:39.415Z,45.52
2018-01-14T07:21:39.391Z,45.32
2018-01-14T07:22:39.369Z,45.14
2018-01-14T07:23:39.346Z,45.04
2018-01-14T07:24:39.323Z,44.65
2018-01-14T07:25:39.300Z,44.94
2018-01-14T07:26:39.282Z,45.14
2018-01-14T07:27:39.254Z,45.04
2018-01-14T07:28:39.234Z,45.23
2018-01-14T07:29:39.208Z,45.32
2018-01-14T07:30:39.187Z,44.75
2018-01-14T07:31:39.164Z,45.14
2018-01-14T07:32:39.141Z,45.04
2018-01-14T07:33:39.119Z,45.14
2018-01-14T07:34:39.096Z,44.94
2018-01-14T07:35:39.074Z,44.65
2018-01-14T07:36:39.051Z,44.65
2018-01-14T07:37:39.028Z,45.23
2018-01-14T07:38:39.004Z,45.23
2018-01-14T07:39:38.982Z,45.14
2018-01-14T07:40:38.963Z,44.94
2018-01-14T07:41:38.937Z,45.14
2018-01-14T07:42:38.915Z,45.14
2018-01-14T07:43:38.903Z,44.84
2018-01-14T07:44:38.871Z,44.84
2018-01-14T07:45:38.846Z,45.14
2018-01-14T07:46:38.824Z,44.94
2018-01-14T07:47:38.802Z,44.94
2018-01-14T07:48:38.780Z,44.84
2018-01-14T07:49:38.757Z,44.75
2018-01-14T07:50:38.735Z,44.84
2018-01-14T07:51:38.713Z,44.84
2018-01-14T07:52:38.691Z,44.87
2018-01-14T07:53:38.667Z,45.04
2018-01-14T07:54:38.644Z,45.04
2018-01-14T07:55:38.621Z,44.84
2018-01-14T07:56:38.600Z,44.84
2018-01-14T07:57:38.577Z,44.75
2018-01-14T07:58:38.554Z,44.75
2018-01-14T07:59:38.532Z,44.77
2018-01-14T08:00:38.511Z,44.38
2018-01-14T08:01:38.486Z,44.68
2018-01-14T08:02:38.464Z,44.77
2018-01-14T08:03:38.443Z,44.58
2018-01-14T08:04:38.420Z,44.29
2018-01-14T08:05:38.398Z,43.71
2018-01-14T08:06:38.375Z,44.10
2018-01-14T08:07:38.353Z,44.77
2018-01-14T08:08:38.331Z,44.75
2018-01-14T08:09:38.307Z,45.06
2018-01-14T08:10:38.307Z,44.58
2018-01-14T08:11:38.263Z,45.14
2018-01-14T08:12:38.240Z,45.90
2018-01-14T08:13:38.218Z,46.00
2018-01-14T08:14:38.195Z,46.00
2018-01-14T08:15:38.173Z,46.28
2018-01-14T08:16:38.151Z,46.09
2018-01-14T08:17:38.129Z,45.90
2018-01-14T08:18:38.104Z,46.31
2018-01-14T08:19:38.084Z,46.19
2018-01-14T08:20:38.061Z,46.38
2018-01-14T08:21:38.037Z,46.58
2018-01-14T08:22:38.019Z,46.50
2018-01-14T08:23:37.994Z,46.41
2018-01-14T08:24:37.970Z,46.21
2018-01-14T08:25:37.948Z,46.12
2018-01-14T08:26:37.929Z,46.12
2018-01-14T08:27:37.913Z,46.21
2018-01-14T08:28:37.882Z,46.21
2018-01-14T08:29:37.859Z,46.50
2018-01-14T08:30:37.837Z,46.86
2018-01-14T08:31:37.815Z,46.79
2018-01-14T08:32:37.792Z,46.69
2018-01-14T08:33:37.769Z,46.31
2018-01-14T08:34:37.747Z,46.21
2018-01-14T08:35:37.724Z,46.12
2018-01-14T08:36:37.702Z,46.21
2018-01-14T08:37:37.678Z,46.21
2018-01-14T08:38:37.656Z,46.12
2018-01-14T08:39:37.634Z,46.12
2018-01-14T08:40:37.611Z,46.31
2018-01-14T08:41:37.588Z,46.50
2018-01-14T08:42:37.565Z,46.50
2018-01-14T08:43:37.542Z,46.12
2018-01-14T08:44:37.520Z,46.31
2018-01-14T08:45:37.496Z,46.12
2018-01-14T08:46:37.474Z,46.12
2018-01-14T08:47:37.451Z,46.21
2018-01-14T08:48:37.433Z,46.14
2018-01-14T08:49:37.404Z,46.12
2018-01-14T08:50:37.383Z,46.02
2018-01-14T08:51:37.360Z,46.14
2018-01-14T08:52:37.337Z,46.14
2018-01-14T08:53:37.313Z,45.76
2018-01-14T08:54:37.291Z,45.66
2018-01-14T08:55:37.268Z,45.66
2018-01-14T08:56:37.246Z,45.66
2018-01-14T08:57:37.221Z,46.14
2018-01-14T08:58:37.199Z,46.14
2018-01-14T08:59:37.177Z,45.56
2018-01-14T09:00:37.156Z,45.37
2018-01-14T09:01:37.129Z,45.18
2018-01-14T09:02:37.107Z,45.08
2018-01-14T09:03:37.085Z,45.18
2018-01-14T09:04:37.062Z,45.37
2018-01-14T09:05:37.039Z,45.18
2018-01-14T09:06:37.016Z,45.28
2018-01-14T09:07:36.994Z,45.08
2018-01-14T09:08:36.971Z,44.99
2018-01-14T09:09:36.948Z,44.89
2018-01-14T09:10:36.925Z,45.08
2018-01-14T09:11:36.903Z,45.18
2018-01-14T09:12:36.880Z,44.89
2018-01-14T09:13:36.856Z,45.18
2018-01-14T09:14:36.834Z,45.08
2018-01-14T09:15:36.810Z,45.08
2018-01-14T09:16:36.787Z,45.18
2018-01-14T09:17:36.764Z,45.18
2018-01-14T09:18:36.741Z,45.08
2018-01-14T09:19:36.720Z,44.79
2018-01-14T09:20:36.697Z,44.99
2018-01-14T09:21:36.674Z,45.28
2018-01-14T09:22:36.651Z,45.08
2018-01-14T09:23:36.628Z,45.28
2018-01-14T09:24:36.652Z,45.37
2018-01-14T09:25:36.582Z,44.70
2018-01-14T09:26:36.560Z,45.18
2018-01-14T09:27:36.538Z,45.08
2018-01-14T09:28:36.516Z,45.28
2018-01-14T09:29:36.492Z,44.99
2018-01-14T09:30:36.472Z,44.82
2018-01-14T09:31:36.450Z,45.10
2018-01-14T09:32:36.424Z,45.10
2018-01-14T09:33:36.403Z,45.01
2018-01-14T09:34:36.379Z,44.53
2018-01-14T09:35:36.356Z,44.82
2018-01-14T09:36:36.335Z,44.82
2018-01-14T09:37:36.311Z,44.14
2018-01-14T09:38:36.288Z,44.62
2018-01-14T09:39:36.266Z,44.26
2018-01-14T09:40:36.244Z,43.88
2018-01-14T09:41:36.220Z,43.95
2018-01-14T09:42:36.198Z,43.95
2018-01-14T09:43:36.174Z,44.07
2018-01-14T09:44:36.153Z,43.30
2018-01-14T09:45:36.130Z,43.51
2018-01-14T09:46:36.108Z,42.84
2018-01-14T09:47:36.086Z,42.65
2018-01-14T09:48:36.062Z,42.46
2018-01-14T09:49:36.040Z,42.65
2018-01-14T09:50:36.018Z,42.46
2018-01-14T09:51:35.995Z,41.99
2018-01-14T09:52:35.973Z,42.09
2018-01-14T09:53:35.950Z,41.51
2018-01-14T09:54:35.926Z,40.95
2018-01-14T09:55:35.906Z,39.62
2018-01-14T09:56:35.883Z,38.51
2018-01-14T09:57:35.860Z,36.80
2018-01-14T09:58:35.837Z,34.89
2018-01-14T09:59:35.814Z,34.33
2018-01-14T10:00:35.793Z,33.86
2018-01-14T10:01:35.769Z,33.67
2018-01-14T10:02:35.748Z,32.89
2018-01-14T10:03:35.725Z,32.52
2018-01-14T10:04:35.704Z,32.04
2018-01-14T10:05:35.690Z,31.84
2018-01-14T10:06:35.659Z,31.57
2018-01-14T10:07:35.637Z,31.28
2018-01-14T10:08:35.615Z,30.60
2018-01-14T10:09:35.591Z,30.62
2018-01-14T10:10:35.570Z,30.91
2018-01-14T10:11:35.549Z,30.91
2018-01-14T10:12:35.527Z,30.71
2018-01-14T10:13:35.508Z,30.71
2018-01-14T10:14:35.482Z,30.44
2018-01-14T10:15:35.460Z,30.42
2018-01-14T10:16:35.438Z,30.89
2018-01-14T10:17:35.416Z,32.78
2018-01-14T10:18:35.394Z,33.34
2018-01-14T10:19:35.372Z,33.17
2018-01-14T10:20:35.351Z,33.26
2018-01-14T10:21:35.329Z,33.83
2018-01-14T10:22:35.306Z,33.83
2018-01-14T10:23:35.283Z,33.75
2018-01-14T10:24:35.263Z,34.02
2018-01-14T10:25:35.240Z,34.41
2018-01-14T10:26:35.218Z,33.76
2018-01-14T10:27:35.197Z,32.91
2018-01-14T10:28:35.176Z,31.57
2018-01-14T10:29:35.157Z,31.47
2018-01-14T10:30:35.132Z,30.55
2018-01-14T10:31:35.110Z,28.91
2018-01-14T10:32:35.089Z,29.19
2018-01-14T10:33:35.066Z,28.13
2018-01-14T10:34:35.045Z,27.67
2018-01-14T10:35:35.023Z,27.76
2018-01-14T10:36:35.001Z,27.67
2018-01-14T10:37:34.981Z,27.19
2018-01-14T10:38:34.957Z,27.00
2018-01-14T10:39:34.937Z,26.61
2018-01-14T10:40:34.916Z,26.82
2018-01-14T10:41:34.893Z,25.95
2018-01-14T10:42:34.873Z,25.85
2018-01-14T10:43:34.850Z,26.14
2018-01-14T10:44:34.830Z,26.61
2018-01-14T10:45:34.808Z,26.72
2018-01-14T10:46:34.786Z,26.98
2018-01-14T10:47:34.766Z,28.40
2018-01-14T10:48:34.744Z,29.55
2018-01-14T10:49:34.726Z,28.72
2018-01-14T10:50:34.701Z,28.32
2018-01-14T10:51:34.680Z,29.37
2018-01-14T10:52:34.663Z,28.23
2018-01-14T10:53:34.637Z,27.66
2018-01-14T10:54:34.617Z,26.61
2018-01-14T10:55:34.595Z,26.43
2018-01-14T10:56:34.575Z,26.33
2018-01-14T10:57:34.553Z,25.65
2018-01-14T10:58:34.535Z,25.27
2018-01-14T10:59:34.510Z,25.10
2018-01-14T11:00:34.490Z,24.04
2018-01-14T11:01:34.468Z,23.95
2018-01-14T11:02:34.448Z,23.55
2018-01-14T11:03:34.428Z,23.85
2018-01-14T11:04:34.407Z,23.28
2018-01-14T11:05:34.385Z,22.60
2018-01-14T11:06:34.364Z,23.07
2018-01-14T11:07:34.343Z,23.08
2018-01-14T11:08:34.323Z,22.12
2018-01-14T11:09:34.300Z,21.92
2018-01-14T11:10:34.281Z,21.55
2018-01-14T11:11:34.259Z,21.54
2018-01-14T11:12:34.239Z,22.41
2018-01-14T11:13:34.218Z,22.79
2018-01-14T11:14:34.197Z,22.31
2018-01-14T11:15:34.177Z,22.13
2018-01-14T11:16:34.156Z,21.17
2018-01-14T11:17:34.136Z,20.40
2018-01-14T11:18:34.114Z,19.71
2018-01-14T11:19:34.094Z,20.02
2018-01-14T11:20:34.074Z,19.71
2018-01-14T11:21:34.051Z,20.01
2018-01-14T11:22:34.032Z,19.70
2018-01-14T11:23:34.012Z,20.19
2018-01-14T11:24:33.992Z,20.29
2018-01-14T11:25:33.971Z,20.48
2018-01-14T11:26:33.953Z,19.51
2018-01-14T11:27:33.930Z,19.90
2018-01-14T11:28:33.912Z,19.70
2018-01-14T11:29:33.923Z,20.47
2018-01-14T11:30:33.868Z,19.60
2018-01-14T11:31:33.848Z,20.00
2018-01-14T11:32:33.828Z,19.60
2018-01-14T11:33:33.805Z,19.73
2018-01-14T11:34:33.786Z,19.81
2018-01-14T11:35:33.765Z,20.20
2018-01-14T11:36:33.746Z,20.10
2018-01-14T11:37:33.725Z,19.62
2018-01-14T11:38:33.704Z,20.01
2018-01-14T11:39:33.684Z,19.52
2018-01-14T11:40:33.663Z,19.91
2018-01-14T11:41:33.642Z,20.01
2018-01-14T11:42:33.622Z,19.62
2018-01-14T11:43:33.602Z,20.20
2018-01-14T11:44:33.582Z,19.62
2018-01-14T11:45:33.561Z,19.81
2018-01-14T11:46:33.540Z,19.81
2018-01-14T11:47:33.520Z,19.81
2018-01-14T11:48:33.503Z,19.91
2018-01-14T11:49:33.478Z,20.20
2018-01-14T11:50:33.457Z,20.20
2018-01-14T11:51:33.437Z,20.01
2018-01-14T11:52:33.420Z,19.71
2018-01-14T11:53:33.396Z,19.81
2018-01-14T11:54:33.376Z,19.81
2018-01-14T11:55:33.356Z,19.81
2018-01-14T11:56:33.337Z,20.30
2018-01-14T11:57:33.316Z,20.09
2018-01-14T11:58:33.294Z,20.10
2018-01-14T11:59:33.274Z,20.29
2018-01-14T12:00:33.255Z,19.81
2018-01-14T12:01:33.234Z,20.29
2018-01-14T12:02:33.213Z,20.48
2018-01-14T12:03:33.194Z,20.19
2018-01-14T12:04:33.174Z,20.00
2018-01-14T12:05:33.188Z,20.09
2018-01-14T12:06:33.133Z,20.10
2018-01-14T12:07:33.113Z,19.90
2018-01-14T12:08:33.092Z,20.29
2018-01-14T12:09:33.073Z,19.71
2018-01-14T12:10:33.053Z,18.44
2018-01-14T12:11:33.033Z,19.62
2018-01-14T12:12:33.013Z,19.60
2018-01-14T12:13:32.992Z,19.80
2018-01-14T12:14:32.972Z,19.60
2018-01-14T12:15:32.952Z,19.70
2018-01-14T12:16:32.932Z,20.09
2018-01-14T12:17:32.911Z,20.39
2018-01-14T12:18:32.891Z,20.39
2018-01-14T12:19:32.870Z,20.58
2018-01-14T12:20:32.850Z,19.60
2018-01-14T12:21:32.830Z,19.90
2018-01-14T12:22:32.816Z,18.84
2018-01-14T12:23:32.790Z,19.23
2018-01-14T12:24:32.769Z,19.32
2018-01-14T12:25:32.747Z,18.34
2018-01-14T12:26:32.728Z,18.74
2018-01-14T12:27:32.709Z,18.25
2018-01-14T12:28:32.688Z,19.02
2018-01-14T12:29:32.666Z,18.24
2018-01-14T12:30:32.646Z,18.24
2018-01-14T12:31:32.626Z,18.15
2018-01-14T12:32:32.606Z,18.24
2018-01-14T12:33:32.585Z,19.21
2018-01-14T12:34:32.564Z,18.92
2018-01-14T12:35:32.545Z,18.54
2018-01-14T12:36:32.524Z,19.02
2018-01-14T12:37:32.503Z,19.01
2018-01-14T12:38:32.482Z,19.70
2018-01-14T12:39:32.461Z,19.89
2018-01-14T12:40:32.442Z,19.11
2018-01-14T12:41:32.421Z,19.21
2018-01-14T12:42:32.403Z,18.43
2018-01-14T12:43:32.381Z,18.33
2018-01-14T12:44:32.361Z,19.50
2018-01-14T12:45:32.339Z,19.50
2018-01-14T12:46:32.320Z,19.50
2018-01-14T12:47:32.325Z,19.60
2018-01-14T12:48:32.279Z,19.60
2018-01-14T12:49:32.265Z,19.11
2018-01-14T12:50:32.241Z,19.98
2018-01-14T12:51:32.217Z,19.68
2018-01-14T12:52:32.197Z,19.40
2018-01-14T12:53:32.178Z,19.20